sensor_id;sensor_type;location;lat;lon;timestamp;pressure;altitude;pressure_sealevel;temperature;humidity
6343;BME280;3204;42.698;23.298;2023-04-08T00:01:29;94979.34;;;7.34;64.63
6343;BME280;3204;42.698;23.298;2023-04-08T00:03:55;94972.91;;;7.30;65.13
6343;BME280;3204;42.698;23.298;2023-04-08T00:06:20;94983.66;;;7.35;64.20
6343;BME280;3204;42.698;23.298;2023-04-08T00:08:46;94977.78;;;7.28;64.96
6343;BME280;3204;42.698;23.298;2023-04-08T00:11:11;94983.25;;;7.23;65.41
6343;BME280;3204;42.698;23.298;2023-04-08T00:13:36;94977.75;;;7.33;64.98
6343;BME280;3204;42.698;23.298;2023-04-08T00:16:02;94977.78;;;7.28;65.29
6343;BME280;3204;42.698;23.298;2023-04-08T00:18:27;94975.28;;;7.36;64.69
6343;BME280;3204;42.698;23.298;2023-04-08T00:20:53;94971.75;;;7.36;63.98
6343;BME280;3204;42.698;23.298;2023-04-08T00:23:19;94967.97;;;7.37;63.93
6343;BME280;3204;42.698;23.298;2023-04-08T00:25:45;94975.22;;;7.41;64.15
6343;BME280;3204;42.698;23.298;2023-04-08T00:28:11;94974.19;;;7.37;64.33
6343;BME280;3204;42.698;23.298;2023-04-08T00:30:36;94965.06;;;7.33;65.72
6343;BME280;3204;42.698;23.298;2023-04-08T00:33:02;94964.59;;;7.26;65.08
6343;BME280;3204;42.698;23.298;2023-04-08T00:35:28;94973.25;;;7.23;65.32
6343;BME280;3204;42.698;23.298;2023-04-08T00:37:54;94975.34;;;7.31;65.21
6343;BME280;3204;42.698;23.298;2023-04-08T00:40:19;94975.22;;;7.41;64.69
6343;BME280;3204;42.698;23.298;2023-04-08T00:42:45;94975.56;;;7.35;65.59
6343;BME280;3204;42.698;23.298;2023-04-08T00:45:10;94977.69;;;7.38;65.08
6343;BME280;3204;42.698;23.298;2023-04-08T00:47:36;94981.06;;;7.48;64.75
6343;BME280;3204;42.698;23.298;2023-04-08T00:50:02;94972.34;;;7.33;65.37
6343;BME280;3204;42.698;23.298;2023-04-08T00:52:28;94978.50;;;7.15;66.27
6343;BME280;3204;42.698;23.298;2023-04-08T00:54:54;94972.00;;;7.16;66.87
6343;BME280;3204;42.698;23.298;2023-04-08T00:57:20;94984.72;;;7.10;66.65
6343;BME280;3204;42.698;23.298;2023-04-08T00:59:45;94975.38;;;7.03;66.98
6343;BME280;3204;42.698;23.298;2023-04-08T01:02:18;94979.50;;;6.95;67.77
6343;BME280;3204;42.698;23.298;2023-04-08T01:05:06;94990.09;;;6.87;68.36
6343;BME280;3204;42.698;23.298;2023-04-08T01:07:40;94991.16;;;6.91;67.95
6343;BME280;3204;42.698;23.298;2023-04-08T01:10:19;94990.94;;;6.82;68.10
6343;BME280;3204;42.698;23.298;2023-04-08T01:12:54;94993.94;;;6.81;67.79
6343;BME280;3204;42.698;23.298;2023-04-08T01:15:20;94997.34;;;6.63;68.88
6343;BME280;3204;42.698;23.298;2023-04-08T01:17:47;94992.50;;;6.60;69.07
6343;BME280;3204;42.698;23.298;2023-04-08T01:20:15;94993.06;;;6.57;68.72
6343;BME280;3204;42.698;23.298;2023-04-08T01:23:20;94989.13;;;6.44;69.68
6343;BME280;3204;42.698;23.298;2023-04-08T01:25:55;94990.59;;;6.32;69.76
6343;BME280;3204;42.698;23.298;2023-04-08T01:28:22;94986.31;;;6.26;69.66
6343;BME280;3204;42.698;23.298;2023-04-08T01:30:48;94978.94;;;6.03;70.96
6343;BME280;3204;42.698;23.298;2023-04-08T01:33:16;94986.28;;;6.31;70.47
6343;BME280;3204;42.698;23.298;2023-04-08T01:35:43;94989.50;;;6.33;70.45
6343;BME280;3204;42.698;23.298;2023-04-08T01:38:14;94983.63;;;6.26;70.58
6343;BME280;3204;42.698;23.298;2023-04-08T01:40:41;94992.81;;;6.25;70.43
6343;BME280;3204;42.698;23.298;2023-04-08T01:43:08;94984.19;;;6.23;71.13
6343;BME280;3204;42.698;23.298;2023-04-08T01:45:34;94987.34;;;6.35;70.58
6343;BME280;3204;42.698;23.298;2023-04-08T01:48:00;94990.31;;;6.33;70.76
6343;BME280;3204;42.698;23.298;2023-04-08T01:50:27;94983.81;;;6.34;70.47
6343;BME280;3204;42.698;23.298;2023-04-08T01:52:53;94992.09;;;6.48;70.53
6343;BME280;3204;42.698;23.298;2023-04-08T01:55:20;94984.75;;;6.53;69.90
6343;BME280;3204;42.698;23.298;2023-04-08T01:57:51;94989.50;;;6.66;69.59
6343;BME280;3204;42.698;23.298;2023-04-08T02:00:23;94991.84;;;6.73;69.14
6343;BME280;3204;42.698;23.298;2023-04-08T02:02:50;94996.72;;;6.71;69.18
6343;BME280;3204;42.698;23.298;2023-04-08T02:05:16;95006.88;;;6.79;69.56
6343;BME280;3204;42.698;23.298;2023-04-08T02:07:42;95011.13;;;6.85;69.16
6343;BME280;3204;42.698;23.298;2023-04-08T02:10:10;95013.50;;;6.91;69.25
6343;BME280;3204;42.698;23.298;2023-04-08T02:12:35;95017.47;;;6.99;68.92
6343;BME280;3204;42.698;23.298;2023-04-08T02:15:01;95013.88;;;6.80;69.10
6343;BME280;3204;42.698;23.298;2023-04-08T02:17:34;95026.63;;;6.74;69.50
6343;BME280;3204;42.698;23.298;2023-04-08T02:22:43;95012.22;;;6.55;70.37
6343;BME280;3204;42.698;23.298;2023-04-08T02:25:16;95024.31;;;6.58;70.30
6343;BME280;3204;42.698;23.298;2023-04-08T02:27:43;95015.72;;;6.56;70.22
6343;BME280;3204;42.698;23.298;2023-04-08T02:30:11;95013.91;;;6.46;70.94
6343;BME280;3204;42.698;23.298;2023-04-08T02:32:38;95019.50;;;6.55;70.76
6343;BME280;3204;42.698;23.298;2023-04-08T02:35:04;95013.22;;;6.31;70.75
6343;BME280;3204;42.698;23.298;2023-04-08T02:37:30;95012.72;;;6.29;71.22
6343;BME280;3204;42.698;23.298;2023-04-08T02:39:56;95014.84;;;6.27;71.33
6343;BME280;3204;42.698;23.298;2023-04-08T02:42:21;95017.50;;;6.32;71.63
6343;BME280;3204;42.698;23.298;2023-04-08T02:44:47;95015.88;;;6.36;71.42
6343;BME280;3204;42.698;23.298;2023-04-08T02:47:12;95012.72;;;6.29;71.76
6343;BME280;3204;42.698;23.298;2023-04-08T02:49:38;95024.03;;;6.26;71.92
6343;BME280;3204;42.698;23.298;2023-04-08T02:52:03;95011.38;;;6.26;72.20
6343;BME280;3204;42.698;23.298;2023-04-08T02:54:29;95009.66;;;6.35;71.72
6343;BME280;3204;42.698;23.298;2023-04-08T02:56:54;95010.16;;;6.42;71.33
6343;BME280;3204;42.698;23.298;2023-04-08T02:59:20;95015.50;;;6.47;71.09
6343;BME280;3204;42.698;23.298;2023-04-08T03:01:45;95018.53;;;6.41;70.79
6343;BME280;3204;42.698;23.298;2023-04-08T03:04:11;95021.50;;;6.39;71.25
6343;BME280;3204;42.698;23.298;2023-04-08T03:06:36;95023.13;;;6.40;70.91
6343;BME280;3204;42.698;23.298;2023-04-08T03:09:01;95025.94;;;6.59;70.43
6343;BME280;3204;42.698;23.298;2023-04-08T03:11:27;95010.91;;;6.53;70.69
6343;BME280;3204;42.698;23.298;2023-04-08T03:13:52;95018.22;;;6.47;71.21
6343;BME280;3204;42.698;23.298;2023-04-08T03:16:18;95019.53;;;6.50;70.22
6343;BME280;3204;42.698;23.298;2023-04-08T03:18:43;95014.16;;;6.50;70.57
6343;BME280;3204;42.698;23.298;2023-04-08T03:21:09;95015.78;;;6.46;70.79
6343;BME280;3204;42.698;23.298;2023-04-08T03:23:34;95013.63;;;6.48;70.20
6343;BME280;3204;42.698;23.298;2023-04-08T03:26:00;95013.63;;;6.48;70.85
6343;BME280;3204;42.698;23.298;2023-04-08T03:28:25;95018.16;;;6.52;69.74
6343;BME280;3204;42.698;23.298;2023-04-08T03:30:51;95016.03;;;6.49;70.20
6343;BME280;3204;42.698;23.298;2023-04-08T03:33:16;95016.03;;;6.49;69.75
6343;BME280;3204;42.698;23.298;2023-04-08T03:35:41;95015.47;;;6.52;69.77
6343;BME280;3204;42.698;23.298;2023-04-08T03:38:07;95014.03;;;6.31;70.35
6343;BME280;3204;42.698;23.298;2023-04-08T03:40:32;95016.38;;;6.38;70.72
6343;BME280;3204;42.698;23.298;2023-04-08T03:42:58;95018.56;;;6.36;70.55
6343;BME280;3204;42.698;23.298;2023-04-08T03:45:23;95032.66;;;6.61;70.33
6343;BME280;3204;42.698;23.298;2023-04-08T03:47:49;95020.03;;;6.52;70.52
6343;BME280;3204;42.698;23.298;2023-04-08T03:50:14;95015.25;;;6.49;70.47
6343;BME280;3204;42.698;23.298;2023-04-08T03:52:40;95020.13;;;6.42;70.70
6343;BME280;3204;42.698;23.298;2023-04-08T03:55:05;95016.56;;;6.51;70.53
6343;BME280;3204;42.698;23.298;2023-04-08T03:57:31;95016.75;;;6.60;70.47
6343;BME280;3204;42.698;23.298;2023-04-08T03:59:56;95010.16;;;6.42;71.07
6343;BME280;3204;42.698;23.298;2023-04-08T04:02:22;95014.59;;;6.62;70.94
6343;BME280;3204;42.698;23.298;2023-04-08T04:04:47;95011.84;;;6.33;71.82
6343;BME280;3204;42.698;23.298;2023-04-08T04:07:13;95011.03;;;6.33;72.00
6343;BME280;3204;42.698;23.298;2023-04-08T04:09:38;95016.41;;;6.33;71.97
6343;BME280;3204;42.698;23.298;2023-04-08T04:12:04;95014.97;;;6.50;71.64
6343;BME280;3204;42.698;23.298;2023-04-08T04:14:29;95022.09;;;6.65;71.11
6343;BME280;3204;42.698;23.298;2023-04-08T04:16:54;95021.59;;;6.63;71.16
6343;BME280;3204;42.698;23.298;2023-04-08T04:19:20;95020.22;;;6.65;71.47
6343;BME280;3204;42.698;23.298;2023-04-08T04:21:46;95030.09;;;6.75;71.48
6343;BME280;3204;42.698;23.298;2023-04-08T04:24:11;95030.97;;;6.70;70.91
6343;BME280;3204;42.698;23.298;2023-04-08T04:26:39;95038.94;;;6.80;70.97
6343;BME280;3204;42.698;23.298;2023-04-08T04:29:06;95039.28;;;6.74;70.76
6343;BME280;3204;42.698;23.298;2023-04-08T04:31:31;95044.75;;;6.92;70.38
6343;BME280;3204;42.698;23.298;2023-04-08T04:33:56;95038.03;;;6.90;70.48
6343;BME280;3204;42.698;23.298;2023-04-08T04:36:22;95038.13;;;6.80;70.55
6343;BME280;3204;42.698;23.298;2023-04-08T04:38:49;95041.69;;;6.75;70.62
6343;BME280;3204;42.698;23.298;2023-04-08T04:41:14;95034.44;;;6.71;70.68
6343;BME280;3204;42.698;23.298;2023-04-08T04:43:40;95027.44;;;6.70;71.12
6343;BME280;3204;42.698;23.298;2023-04-08T04:46:05;95037.53;;;6.88;71.47
6343;BME280;3204;42.698;23.298;2023-04-08T04:48:33;95036.59;;;6.74;71.45
6343;BME280;3204;42.698;23.298;2023-04-08T04:50:59;95034.25;;;6.62;72.05
6343;BME280;3204;42.698;23.298;2023-04-08T04:53:27;95035.06;;;6.63;72.15
6343;BME280;3204;42.698;23.298;2023-04-08T04:55:52;95033.47;;;6.57;72.41
6343;BME280;3204;42.698;23.298;2023-04-08T04:58:17;95034.78;;;6.64;71.73
6343;BME280;3204;42.698;23.298;2023-04-08T05:00:43;95039.38;;;6.64;72.28
6343;BME280;3204;42.698;23.298;2023-04-08T05:03:09;95038.19;;;6.75;71.81
6343;BME280;3204;42.698;23.298;2023-04-08T05:05:35;95002.00;;;6.52;71.46
6343;BME280;3204;42.698;23.298;2023-04-08T05:08:00;95038.81;;;6.67;71.35
6343;BME280;3204;42.698;23.298;2023-04-08T05:10:26;95042.56;;;6.66;71.61
6343;BME280;3204;42.698;23.298;2023-04-08T05:12:51;95043.06;;;6.73;71.57
6343;BME280;3204;42.698;23.298;2023-04-08T05:15:17;95049.50;;;6.77;71.75
6343;BME280;3204;42.698;23.298;2023-04-08T05:17:42;95046.75;;;6.82;71.11
6343;BME280;3204;42.698;23.298;2023-04-08T05:20:08;95046.72;;;6.87;70.77
6343;BME280;3204;42.698;23.298;2023-04-08T05:22:33;95051.53;;;6.90;70.50
6343;BME280;3204;42.698;23.298;2023-04-08T05:24:59;95039.31;;;6.69;71.75
6343;BME280;3204;42.698;23.298;2023-04-08T05:27:24;95044.13;;;6.77;72.60
6343;BME280;3204;42.698;23.298;2023-04-08T05:29:50;95045.72;;;6.78;71.59
6343;BME280;3204;42.698;23.298;2023-04-08T05:32:16;95049.81;;;6.70;71.77
6343;BME280;3204;42.698;23.298;2023-04-08T05:34:42;95048.69;;;6.76;71.68
6343;BME280;3204;42.698;23.298;2023-04-08T05:37:07;95048.59;;;6.86;71.09
6343;BME280;3204;42.698;23.298;2023-04-08T05:39:32;95054.16;;;7.00;71.09
6343;BME280;3204;42.698;23.298;2023-04-08T05:41:58;95048.28;;;7.21;70.68
6343;BME280;3204;42.698;23.298;2023-04-08T05:44:23;95051.75;;;7.22;70.34
6343;BME280;3204;42.698;23.298;2023-04-08T05:46:49;95044.16;;;7.29;69.97
6343;BME280;3204;42.698;23.298;2023-04-08T05:49:14;95033.19;;;7.44;69.25
6343;BME280;3204;42.698;23.298;2023-04-08T05:51:41;95039.50;;;7.58;69.71
6343;BME280;3204;42.698;23.298;2023-04-08T05:54:06;95038.34;;;7.64;69.12
6343;BME280;3204;42.698;23.298;2023-04-08T05:56:32;95036.41;;;7.69;72.54
6343;BME280;3204;42.698;23.298;2023-04-08T05:58:57;95031.84;;;7.65;68.36
6343;BME280;3204;42.698;23.298;2023-04-08T06:01:23;95035.19;;;7.80;67.97
6343;BME280;3204;42.698;23.298;2023-04-08T06:03:49;95038.28;;;7.69;67.76
6343;BME280;3204;42.698;23.298;2023-04-08T06:06:16;95029.41;;;7.68;67.90
6343;BME280;3204;42.698;23.298;2023-04-08T06:08:42;95030.19;;;7.69;67.71
6343;BME280;3204;42.698;23.298;2023-04-08T06:11:07;95032.69;;;7.84;67.35
6343;BME280;3204;42.698;23.298;2023-04-08T06:13:33;95036.66;;;7.91;65.40
6343;BME280;3204;42.698;23.298;2023-04-08T06:16:09;95034.28;;;7.85;64.24
6343;BME280;3204;42.698;23.298;2023-04-08T06:18:34;95035.34;;;7.89;64.42
6343;BME280;3204;42.698;23.298;2023-04-08T06:21:00;95034.28;;;7.85;65.12
6343;BME280;3204;42.698;23.298;2023-04-08T06:23:25;95033.22;;;7.86;64.49
6343;BME280;3204;42.698;23.298;2023-04-08T06:25:52;95032.47;;;7.80;65.06
6343;BME280;3204;42.698;23.298;2023-04-08T06:28:18;95038.09;;;7.84;65.38
6343;BME280;3204;42.698;23.298;2023-04-08T06:30:43;95033.78;;;7.83;65.54
6343;BME280;3204;42.698;23.298;2023-04-08T06:33:09;95037.97;;;7.94;65.44
6343;BME280;3204;42.698;23.298;2023-04-08T06:35:34;95033.09;;;8.14;65.15
6343;BME280;3204;42.698;23.298;2023-04-08T06:38:02;95034.78;;;8.10;64.70
6343;BME280;3204;42.698;23.298;2023-04-08T06:40:27;95034.38;;;8.22;65.17
6343;BME280;3204;42.698;23.298;2023-04-08T06:42:53;95040.44;;;8.32;65.02
6343;BME280;3204;42.698;23.298;2023-04-08T06:45:18;95043.56;;;8.58;64.38
6343;BME280;3204;42.698;23.298;2023-04-08T06:47:44;95041.44;;;8.55;64.03
6343;BME280;3204;42.698;23.298;2023-04-08T06:50:09;95042.56;;;8.54;64.65
6343;BME280;3204;42.698;23.298;2023-04-08T06:52:35;95046.84;;;8.55;64.57
6343;BME280;3204;42.698;23.298;2023-04-08T06:55:00;95042.59;;;8.67;64.09
6343;BME280;3204;42.698;23.298;2023-04-08T06:57:26;95039.25;;;8.75;63.47
6343;BME280;3204;42.698;23.298;2023-04-08T06:59:51;95042.28;;;8.87;63.51
6343;BME280;3204;42.698;23.298;2023-04-08T07:02:17;95045.09;;;8.82;63.33
6343;BME280;3204;42.698;23.298;2023-04-08T07:04:43;95041.00;;;8.85;62.69
6343;BME280;3204;42.698;23.298;2023-04-08T07:07:08;95043.22;;;8.96;61.94
6343;BME280;3204;42.698;23.298;2023-04-08T07:09:34;95039.81;;;9.04;62.52
6343;BME280;3204;42.698;23.298;2023-04-08T07:12:01;95036.91;;;9.01;62.19
6343;BME280;3204;42.698;23.298;2023-04-08T07:14:28;95044.53;;;8.99;63.18
6343;BME280;3204;42.698;23.298;2023-04-08T07:16:54;95043.59;;;8.90;63.38
6343;BME280;3204;42.698;23.298;2023-04-08T07:19:20;95050.69;;;8.86;63.92
6343;BME280;3204;42.698;23.298;2023-04-08T07:21:48;95058.09;;;8.80;64.03
6343;BME280;3204;42.698;23.298;2023-04-08T07:24:14;95057.59;;;8.78;63.72
6343;BME280;3204;42.698;23.298;2023-04-08T07:26:40;95056.97;;;8.81;64.31
6343;BME280;3204;42.698;23.298;2023-04-08T07:29:05;95058.94;;;8.94;63.93
6343;BME280;3204;42.698;23.298;2023-04-08T07:31:32;95058.25;;;8.70;64.74
6343;BME280;3204;42.698;23.298;2023-04-08T07:33:57;95058.13;;;8.94;64.75
6343;BME280;3204;42.698;23.298;2023-04-08T07:36:23;95069.47;;;8.96;65.01
6343;BME280;3204;42.698;23.298;2023-04-08T07:38:49;95063.97;;;9.01;64.36
6343;BME280;3204;42.698;23.298;2023-04-08T07:41:14;95067.53;;;9.15;63.09
6343;BME280;3204;42.698;23.298;2023-04-08T07:43:40;95069.78;;;9.40;63.33
6343;BME280;3204;42.698;23.298;2023-04-08T07:46:06;95074.03;;;9.73;62.80
6343;BME280;3204;42.698;23.298;2023-04-08T07:48:32;95074.31;;;9.58;61.62
6343;BME280;3204;42.698;23.298;2023-04-08T07:51:02;95081.13;;;9.55;62.43
6343;BME280;3204;42.698;23.298;2023-04-08T07:53:27;95077.22;;;9.48;63.34
6343;BME280;3204;42.698;23.298;2023-04-08T07:55:54;95075.53;;;9.52;63.27
6343;BME280;3204;42.698;23.298;2023-04-08T07:58:19;95085.25;;;9.66;63.51
6343;BME280;3204;42.698;23.298;2023-04-08T08:00:45;95089.50;;;9.72;63.80
6343;BME280;3204;42.698;23.298;2023-04-08T08:03:10;95089.50;;;9.86;63.58
6343;BME280;3204;42.698;23.298;2023-04-08T08:05:36;95094.41;;;9.97;62.10
6343;BME280;3204;42.698;23.298;2023-04-08T08:08:02;95092.38;;;10.03;61.60
6343;BME280;3204;42.698;23.298;2023-04-08T08:10:28;95095.13;;;10.30;61.08
6343;BME280;3204;42.698;23.298;2023-04-08T08:12:53;95087.28;;;10.01;63.07
6343;BME280;3204;42.698;23.298;2023-04-08T08:15:19;95089.78;;;9.71;64.15
6343;BME280;3204;42.698;23.298;2023-04-08T08:17:45;95084.19;;;9.81;64.36
6343;BME280;3204;42.698;23.298;2023-04-08T08:20:10;95069.72;;;9.72;64.24
6343;BME280;3204;42.698;23.298;2023-04-08T08:22:36;95077.31;;;9.43;65.47
6343;BME280;3204;42.698;23.298;2023-04-08T08:25:04;95075.63;;;9.60;65.50
6343;BME280;3204;42.698;23.298;2023-04-08T08:27:29;95085.78;;;9.68;64.66
6343;BME280;3204;42.698;23.298;2023-04-08T08:29:55;95083.06;;;9.82;63.69
6343;BME280;3204;42.698;23.298;2023-04-08T08:32:21;95092.59;;;9.93;63.37
6343;BME280;3204;42.698;23.298;2023-04-08T08:34:46;95089.59;;;9.94;62.91
6343;BME280;3204;42.698;23.298;2023-04-08T08:37:12;95086.78;;;9.86;64.25
6343;BME280;3204;42.698;23.298;2023-04-08T08:39:37;95085.78;;;9.82;63.97
6343;BME280;3204;42.698;23.298;2023-04-08T08:42:03;95086.16;;;9.75;63.90
6343;BME280;3204;42.698;23.298;2023-04-08T08:44:29;95078.53;;;9.64;64.61
6343;BME280;3204;42.698;23.298;2023-04-08T08:46:55;95083.56;;;9.70;64.26
6343;BME280;3204;42.698;23.298;2023-04-08T08:49:20;95081.16;;;9.69;63.86
6343;BME280;3204;42.698;23.298;2023-04-08T08:51:45;95076.63;;;9.78;63.95
6343;BME280;3204;42.698;23.298;2023-04-08T08:54:12;95090.09;;;9.83;63.31
6343;BME280;3204;42.698;23.298;2023-04-08T08:56:38;95086.88;;;10.35;64.94
6343;BME280;3204;42.698;23.298;2023-04-08T08:59:04;95089.75;;;11.09;61.20
6343;BME280;3204;42.698;23.298;2023-04-08T09:01:38;95091.88;;;11.12;59.97
6343;BME280;3204;42.698;23.298;2023-04-08T09:04:07;95082.63;;;11.35;65.16
6343;BME280;3204;42.698;23.298;2023-04-08T09:06:32;95079.13;;;12.43;63.61
6343;BME280;3204;42.698;23.298;2023-04-08T09:08:58;95090.25;;;13.32;61.87
6343;BME280;3204;42.698;23.298;2023-04-08T09:11:24;95088.81;;;13.97;59.57
6343;BME280;3204;42.698;23.298;2023-04-08T09:13:50;95092.16;;;13.06;54.93
6343;BME280;3204;42.698;23.298;2023-04-08T09:16:17;95095.66;;;12.89;60.58
6343;BME280;3204;42.698;23.298;2023-04-08T09:18:43;95092.66;;;12.99;57.17
6343;BME280;3204;42.698;23.298;2023-04-08T09:21:11;95085.84;;;13.73;55.32
6343;BME280;3204;42.698;23.298;2023-04-08T09:26:11;95086.84;;;12.84;56.88
6343;BME280;3204;42.698;23.298;2023-04-08T09:28:37;95082.84;;;11.69;58.82
6343;BME280;3204;42.698;23.298;2023-04-08T09:31:26;95073.91;;;12.16;58.21
6343;BME280;3204;42.698;23.298;2023-04-08T09:33:57;95078.81;;;12.45;57.49
6343;BME280;3204;42.698;23.298;2023-04-08T09:36:23;95074.69;;;13.24;58.39
6343;BME280;3204;42.698;23.298;2023-04-08T09:38:48;95076.28;;;13.42;55.64
6343;BME280;3204;42.698;23.298;2023-04-08T09:41:16;95068.69;;;13.73;58.16
6343;BME280;3204;42.698;23.298;2023-04-08T09:43:43;95072.75;;;13.41;54.93
6343;BME280;3204;42.698;23.298;2023-04-08T09:46:14;95056.31;;;13.84;55.83
6343;BME280;3204;42.698;23.298;2023-04-08T09:48:49;95055.97;;;13.85;53.99
6343;BME280;3204;42.698;23.298;2023-04-08T09:51:18;95052.56;;;13.34;53.81
6343;BME280;3204;42.698;23.298;2023-04-08T09:53:47;95062.03;;;13.11;53.44
6343;BME280;3204;42.698;23.298;2023-04-08T09:56:14;95068.63;;;13.10;54.37
6343;BME280;3204;42.698;23.298;2023-04-08T09:58:53;95061.50;;;13.51;52.93
6343;BME280;3204;42.698;23.298;2023-04-08T10:01:27;95063.28;;;13.56;52.07
6343;BME280;3204;42.698;23.298;2023-04-08T10:03:56;95052.97;;;13.70;52.10
6343;BME280;3204;42.698;23.298;2023-04-08T10:06:27;95047.81;;;13.85;52.44
6343;BME280;3204;42.698;23.298;2023-04-08T10:08:54;95056.66;;;13.65;51.77
6343;BME280;3204;42.698;23.298;2023-04-08T10:11:20;95053.03;;;12.51;53.81
6343;BME280;3204;42.698;23.298;2023-04-08T10:13:46;95051.63;;;12.79;54.12
6343;BME280;3204;42.698;23.298;2023-04-08T10:16:22;95047.75;;;12.63;53.72
6343;BME280;3204;42.698;23.298;2023-04-08T10:18:50;95048.72;;;12.50;54.87
6343;BME280;3204;42.698;23.298;2023-04-08T10:23:58;95042.47;;;12.58;55.04
6343;BME280;3204;42.698;23.298;2023-04-08T10:26:35;95037.84;;;12.50;56.06
6343;BME280;3204;42.698;23.298;2023-04-08T10:31:53;95046.66;;;12.81;55.13
6343;BME280;3204;42.698;23.298;2023-04-08T10:36:45;95031.66;;;13.00;53.71
6343;BME280;3204;42.698;23.298;2023-04-08T10:39:12;95035.13;;;12.84;54.74
6343;BME280;3204;42.698;23.298;2023-04-08T10:41:45;95026.81;;;12.97;53.89
6343;BME280;3204;42.698;23.298;2023-04-08T10:44:22;95017.53;;;12.56;54.71
6343;BME280;3204;42.698;23.298;2023-04-08T10:46:48;95019.44;;;12.55;54.39
6343;BME280;3204;42.698;23.298;2023-04-08T10:49:15;95021.38;;;12.63;53.28
6343;BME280;3204;42.698;23.298;2023-04-08T10:51:41;95017.69;;;12.51;53.71
6343;BME280;3204;42.698;23.298;2023-04-08T10:54:14;94998.94;;;12.58;53.98
6343;BME280;3204;42.698;23.298;2023-04-08T10:56:49;95006.94;;;12.88;53.79
6343;BME280;3204;42.698;23.298;2023-04-08T10:59:32;95019.94;;;12.83;54.17
6343;BME280;3204;42.698;23.298;2023-04-08T11:01:58;95004.69;;;12.31;54.50
6343;BME280;3204;42.698;23.298;2023-04-08T11:04:25;95000.69;;;12.54;54.23
6343;BME280;3204;42.698;23.298;2023-04-08T11:06:51;95001.03;;;12.61;53.54
6343;BME280;3204;42.698;23.298;2023-04-08T11:09:18;94993.69;;;12.70;53.41
6343;BME280;3204;42.698;23.298;2023-04-08T11:11:45;94988.22;;;12.44;54.23
6343;BME280;3204;42.698;23.298;2023-04-08T11:14:11;94985.50;;;12.36;54.40
6343;BME280;3204;42.698;23.298;2023-04-08T11:16:38;94983.53;;;12.11;54.24
6343;BME280;3204;42.698;23.298;2023-04-08T11:19:04;94980.34;;;12.17;54.64
6343;BME280;3204;42.698;23.298;2023-04-08T11:21:31;94984.03;;;12.30;54.42
6343;BME280;3204;42.698;23.298;2023-04-08T11:23:59;94977.84;;;12.55;54.29
6343;BME280;3204;42.698;23.298;2023-04-08T11:26:25;94975.72;;;12.86;52.75
6343;BME280;3204;42.698;23.298;2023-04-08T11:28:51;94978.75;;;13.18;52.22
6343;BME280;3204;42.698;23.298;2023-04-08T11:31:18;94969.03;;;13.46;51.40
6343;BME280;3204;42.698;23.298;2023-04-08T11:33:47;94967.84;;;13.73;50.40
6343;BME280;3204;42.698;23.298;2023-04-08T11:36:14;94977.88;;;13.81;49.96
6343;BME280;3204;42.698;23.298;2023-04-08T11:38:42;94970.56;;;14.02;48.76
6343;BME280;3204;42.698;23.298;2023-04-08T11:41:08;94963.28;;;13.77;48.92
6343;BME280;3204;42.698;23.298;2023-04-08T11:43:34;94966.56;;;13.62;49.28
6343;BME280;3204;42.698;23.298;2023-04-08T11:46:11;94956.50;;;13.91;48.84
6343;BME280;3204;42.698;23.298;2023-04-08T11:48:37;94946.72;;;14.19;47.88
6343;BME280;3204;42.698;23.298;2023-04-08T11:51:05;94952.94;;;14.49;47.81
6343;BME280;3204;42.698;23.298;2023-04-08T11:53:33;94950.06;;;14.66;48.05
6343;BME280;3204;42.698;23.298;2023-04-08T11:56:19;94952.41;;;14.35;47.11
6343;BME280;3204;42.698;23.298;2023-04-08T11:58:47;94946.78;;;14.31;46.34
6343;BME280;3204;42.698;23.298;2023-04-08T12:01:13;94940.97;;;14.21;46.73
6343;BME280;3204;42.698;23.298;2023-04-08T12:03:52;94953.84;;;14.03;46.75
6343;BME280;3204;42.698;23.298;2023-04-08T12:06:17;94951.03;;;13.62;47.55
6343;BME280;3204;42.698;23.298;2023-04-08T12:08:43;94942.72;;;13.59;47.82
6343;BME280;3204;42.698;23.298;2023-04-08T12:11:08;94941.69;;;13.34;48.29
6343;BME280;3204;42.698;23.298;2023-04-08T12:13:34;94932.69;;;13.34;48.52
6343;BME280;3204;42.698;23.298;2023-04-08T12:16:00;94932.28;;;13.15;49.13
6343;BME280;3204;42.698;23.298;2023-04-08T12:18:25;94931.53;;;12.97;49.71
6343;BME280;3204;42.698;23.298;2023-04-08T12:20:51;94929.28;;;13.08;49.65
6343;BME280;3204;42.698;23.298;2023-04-08T12:23:16;94930.06;;;13.17;50.03
6343;BME280;3204;42.698;23.298;2023-04-08T12:25:42;94925.75;;;13.07;50.75
6343;BME280;3204;42.698;23.298;2023-04-08T12:28:07;94928.44;;;13.24;50.16
6343;BME280;3204;42.698;23.298;2023-04-08T12:30:34;94926.72;;;13.03;49.99
6343;BME280;3204;42.698;23.298;2023-04-08T12:32:59;94924.59;;;13.08;50.52
6343;BME280;3204;42.698;23.298;2023-04-08T12:35:25;94922.66;;;13.26;50.14
6343;BME280;3204;42.698;23.298;2023-04-08T12:37:50;94919.47;;;13.53;49.69
6343;BME280;3204;42.698;23.298;2023-04-08T12:40:15;94925.03;;;13.36;49.96
6343;BME280;3204;42.698;23.298;2023-04-08T12:42:43;94909.69;;;13.23;50.71
6343;BME280;3204;42.698;23.298;2023-04-08T12:45:09;94917.13;;;12.97;50.30
6343;BME280;3204;42.698;23.298;2023-04-08T12:47:34;94919.06;;;12.88;50.68
6343;BME280;3204;42.698;23.298;2023-04-08T12:50:00;94919.06;;;12.88;50.97
6343;BME280;3204;42.698;23.298;2023-04-08T12:52:26;94924.19;;;12.98;50.83
6343;BME280;3204;42.698;23.298;2023-04-08T12:54:51;94924.00;;;12.86;50.65
6343;BME280;3204;42.698;23.298;2023-04-08T12:57:17;94931.72;;;12.84;50.78
6343;BME280;3204;42.698;23.298;2023-04-08T12:59:42;94922.38;;;12.93;50.83
6343;BME280;3204;42.698;23.298;2023-04-08T13:02:07;94932.19;;;13.03;50.96
6343;BME280;3204;42.698;23.298;2023-04-08T13:04:33;94932.34;;;12.72;51.47
6343;BME280;3204;42.698;23.298;2023-04-08T13:06:58;94945.31;;;12.67;52.35
6343;BME280;3204;42.698;23.298;2023-04-08T13:09:25;94936.69;;;12.65;52.59
6343;BME280;3204;42.698;23.298;2023-04-08T13:11:50;94936.22;;;12.71;53.22
6343;BME280;3204;42.698;23.298;2023-04-08T13:14:16;94936.50;;;12.78;54.29
6343;BME280;3204;42.698;23.298;2023-04-08T13:16:41;94936.69;;;12.65;54.71
6343;BME280;3204;42.698;23.298;2023-04-08T13:19:06;94924.22;;;12.64;56.90
6343;BME280;3204;42.698;23.298;2023-04-08T13:21:32;94907.88;;;12.72;56.59
6343;BME280;3204;42.698;23.298;2023-04-08T13:24:01;94915.97;;;12.89;58.81
6343;BME280;3204;42.698;23.298;2023-04-08T13:26:29;94918.09;;;12.84;56.86
6343;BME280;3204;42.698;23.298;2023-04-08T13:29:00;94914.25;;;12.68;56.89